createdAt,value
2023-04-02T00:00:43.305Z,54.60
2023-04-02T00:01:43.333Z,54.25
2023-04-02T00:02:43.302Z,59.17
2023-04-02T00:03:43.330Z,55.56
2023-04-02T00:04:43.277Z,56.53
2023-04-02T00:05:43.246Z,51.12
2023-04-02T00:06:43.257Z,56.44
2023-04-02T00:07:43.249Z,53.94
2023-04-02T00:08:43.230Z,55.58
2023-04-02T00:09:43.214Z,55.99
2023-04-02T00:10:43.211Z,57.03
2023-04-02T00:11:43.215Z,53.56
2023-04-02T00:12:43.173Z,54.48
2023-04-02T00:13:43.197Z,56.43
2023-04-02T00:14:43.166Z,56.22
2023-04-02T00:15:43.185Z,56.04
2023-04-02T00:16:43.195Z,54.50
2023-04-02T00:17:43.151Z,56.22
2023-04-02T00:18:43.148Z,54.77
2023-04-02T00:19:43.112Z,51.54
2023-04-02T00:20:43.129Z,49.35
2023-04-02T00:21:43.106Z,52.67
2023-04-02T00:22:43.092Z,53.73
2023-04-02T00:23:43.100Z,54.00
2023-04-02T00:24:43.081Z,53.60
2023-04-02T00:25:43.147Z,53.24
2023-04-02T00:26:43.047Z,55.85
2023-04-02T00:27:43.060Z,55.22
2023-04-02T00:28:43.026Z,55.15
2023-04-02T00:29:43.047Z,58.04
2023-04-02T00:30:43.038Z,57.42
2023-04-02T00:31:43.041Z,55.08
2023-04-02T00:32:43.010Z,55.55
2023-04-02T00:33:42.976Z,55.09
2023-04-02T00:34:42.987Z,51.96
2023-04-02T00:35:43.002Z,51.42
2023-04-02T00:36:42.930Z,54.39
2023-04-02T00:37:42.952Z,53.57
2023-04-02T00:38:42.913Z,52.98
2023-04-02T00:39:42.906Z,51.51
2023-04-02T00:40:42.889Z,50.43
2023-04-02T00:41:42.890Z,52.82
2023-04-02T00:42:42.879Z,51.56
2023-04-02T00:43:42.875Z,55.11
2023-04-02T00:44:42.883Z,56.48
2023-04-02T00:45:42.859Z,52.09
2023-04-02T00:46:42.844Z,50.65
2023-04-02T00:47:42.879Z,54.69
2023-04-02T00:48:42.841Z,52.03
2023-04-02T00:49:42.819Z,55.12
2023-04-02T00:50:42.811Z,57.61
2023-04-02T00:51:42.792Z,53.69
2023-04-02T00:52:42.805Z,54.74
2023-04-02T00:53:42.778Z,56.10
2023-04-02T00:54:42.759Z,57.44
2023-04-02T00:55:42.770Z,57.15
2023-04-02T00:56:42.752Z,53.37
2023-04-02T00:57:42.742Z,53.85
2023-04-02T00:58:42.725Z,57.29
2023-04-02T00:59:42.719Z,57.30
2023-04-02T01:00:42.723Z,55.49
2023-04-02T01:01:42.898Z,51.01
2023-04-02T01:02:42.830Z,53.43
2023-04-02T01:03:42.873Z,56.28
2023-04-02T01:04:42.653Z,55.14
2023-04-02T01:05:42.647Z,58.96
2023-04-02T01:06:42.641Z,55.73
2023-04-02T01:07:42.621Z,52.88
2023-04-02T01:08:42.629Z,53.10
2023-04-02T01:09:42.621Z,53.41
2023-04-02T01:10:42.624Z,52.33
2023-04-02T01:11:42.600Z,53.65
2023-04-02T01:12:42.568Z,55.61
2023-04-02T01:13:42.565Z,54.95
2023-04-02T01:14:42.552Z,55.22
2023-04-02T01:15:42.546Z,57.09
2023-04-02T01:16:42.563Z,52.90
2023-04-02T01:17:42.604Z,52.72
2023-04-02T01:18:42.517Z,56.84
2023-04-02T01:19:42.500Z,53.81
2023-04-02T01:20:42.504Z,55.42
2023-04-02T01:21:42.544Z,55.28
2023-04-02T01:22:42.482Z,57.61
2023-04-02T01:23:42.457Z,56.96
2023-04-02T01:24:42.455Z,55.29
2023-04-02T01:25:42.459Z,53.55
2023-04-02T01:26:42.436Z,56.05
2023-04-02T01:27:42.423Z,53.42
2023-04-02T01:28:42.395Z,52.75
2023-04-02T01:29:42.410Z,52.44
2023-04-02T01:30:42.382Z,59.04
2023-04-02T01:31:42.441Z,54.70
2023-04-02T01:32:42.393Z,55.65
2023-04-02T01:33:42.369Z,53.02
2023-04-02T01:34:42.339Z,55.24
2023-04-02T01:35:42.385Z,55.59
2023-04-02T01:36:42.336Z,56.93
2023-04-02T01:37:42.300Z,54.12
2023-04-02T01:38:43.302Z,54.52
2023-04-02T01:39:42.301Z,53.94
2023-04-02T01:40:42.278Z,54.77
2023-04-02T01:41:42.285Z,52.26
2023-04-02T01:42:42.282Z,52.09
2023-04-02T01:43:42.260Z,51.09
2023-04-02T01:44:42.250Z,54.61
2023-04-02T01:45:42.227Z,51.27
2023-04-02T01:46:42.283Z,50.95
2023-04-02T01:47:42.253Z,52.10
2023-04-02T01:48:42.189Z,53.64
2023-04-02T01:49:42.210Z,52.18
2023-04-02T01:50:42.164Z,51.37
2023-04-02T01:51:42.162Z,52.18
2023-04-02T01:52:42.162Z,50.65
2023-04-02T01:53:42.128Z,50.26
2023-04-02T01:54:42.145Z,51.84
2023-04-02T01:55:42.136Z,54.17
2023-04-02T01:56:42.103Z,52.25
2023-04-02T01:57:42.108Z,53.15
2023-04-02T01:58:42.089Z,53.04
2023-04-02T01:59:42.092Z,50.64
2023-04-02T02:00:42.093Z,50.14
2023-04-02T02:01:42.057Z,51.32
2023-04-02T02:02:42.129Z,56.13
2023-04-02T02:03:42.056Z,51.34
2023-04-02T02:04:42.017Z,53.83
2023-04-02T02:05:42.021Z,50.04
2023-04-02T02:06:41.997Z,52.27
2023-04-02T02:07:41.999Z,57.27
2023-04-02T02:08:41.989Z,53.10
2023-04-02T02:09:41.970Z,53.39
2023-04-02T02:10:41.980Z,53.39
2023-04-02T02:11:41.945Z,55.81
2023-04-02T02:12:41.949Z,55.20
2023-04-02T02:13:42.252Z,54.00
2023-04-02T02:14:41.939Z,55.16
2023-04-02T02:15:41.924Z,52.72
2023-04-02T02:16:42.094Z,54.27
2023-04-02T02:17:41.970Z,51.46
2023-04-02T02:18:41.869Z,52.59
2023-04-02T02:19:41.873Z,52.31
2023-04-02T02:20:41.867Z,51.81
2023-04-02T02:21:41.869Z,53.52
2023-04-02T02:22:41.841Z,53.21
2023-04-02T02:23:41.832Z,52.22
2023-04-02T02:24:41.849Z,51.31
2023-04-02T02:25:41.833Z,52.49
2023-04-02T02:26:41.787Z,54.98
2023-04-02T02:27:41.799Z,53.96
2023-04-02T02:28:41.788Z,51.75
2023-04-02T02:29:41.783Z,55.90
2023-04-02T02:30:41.757Z,49.52
2023-04-02T02:31:41.802Z,49.35
2023-04-02T02:32:41.767Z,49.85
2023-04-02T02:33:41.742Z,52.08
2023-04-02T02:34:41.715Z,52.12
2023-04-02T02:35:41.775Z,53.01
2023-04-02T02:36:41.691Z,50.13
2023-04-02T02:37:41.704Z,52.02
2023-04-02T02:38:41.673Z,50.07
2023-04-02T02:39:41.677Z,48.00
2023-04-02T02:40:41.665Z,49.33
2023-04-02T02:41:41.652Z,54.08
2023-04-02T02:42:41.637Z,53.97
2023-04-02T02:43:41.637Z,51.07
2023-04-02T02:44:41.622Z,49.60
2023-04-02T02:45:41.650Z,51.44
2023-04-02T02:46:41.594Z,52.45
2023-04-02T02:47:41.588Z,57.14
2023-04-02T02:48:41.576Z,53.15
2023-04-02T02:49:41.584Z,50.62
2023-04-02T02:50:41.563Z,50.42
2023-04-02T02:51:41.531Z,51.98
2023-04-02T02:52:41.524Z,51.75
2023-04-02T02:53:41.519Z,56.55
2023-04-02T02:54:41.534Z,53.04
2023-04-02T02:55:41.504Z,49.69
2023-04-02T02:56:41.508Z,52.36
2023-04-02T02:57:41.488Z,48.97
2023-04-02T02:58:41.475Z,49.05
2023-04-02T02:59:41.463Z,52.98
2023-04-02T03:00:41.474Z,47.01
2023-04-02T03:01:41.476Z,52.06
2023-04-02T03:02:41.574Z,56.56
2023-04-02T03:03:41.585Z,53.15
2023-04-02T03:04:41.440Z,50.76
2023-04-02T03:05:41.462Z,46.67
2023-04-02T03:06:41.392Z,51.27
2023-04-02T03:07:41.398Z,53.66
2023-04-02T03:08:41.365Z,52.22
2023-04-02T03:09:41.353Z,48.15
2023-04-02T03:10:41.344Z,50.28
2023-04-02T03:11:41.345Z,48.56
2023-04-02T03:12:41.357Z,52.71
2023-04-02T03:13:41.324Z,52.88
2023-04-02T03:14:41.303Z,52.57
2023-04-02T03:15:41.359Z,51.59
2023-04-02T03:16:41.314Z,53.36
2023-04-02T03:17:41.319Z,54.19
2023-04-02T03:18:41.276Z,51.35
2023-04-02T03:19:41.266Z,52.63
2023-04-02T03:20:41.272Z,53.07
2023-04-02T03:21:41.242Z,50.57
2023-04-02T03:22:41.224Z,50.93
2023-04-02T03:23:41.246Z,51.63
2023-04-02T03:24:41.203Z,56.74
2023-04-02T03:25:41.195Z,54.92
2023-04-02T03:26:41.177Z,52.15
2023-04-02T03:27:41.281Z,51.00
2023-04-02T03:28:41.168Z,48.62
2023-04-02T03:29:41.159Z,53.94
2023-04-02T03:31:13.065Z,53.94
2023-04-02T03:31:41.145Z,51.27
2023-04-02T03:32:41.193Z,54.30
2023-04-02T03:33:41.113Z,47.20
2023-04-02T03:34:41.099Z,55.81
2023-04-02T03:35:41.113Z,52.28
2023-04-02T03:36:41.112Z,48.93
2023-04-02T03:37:41.068Z,47.43
2023-04-02T03:38:41.077Z,50.98
2023-04-02T03:39:41.063Z,51.79
2023-04-02T03:40:41.069Z,53.08
2023-04-02T03:41:41.021Z,53.70
2023-04-02T03:42:41.027Z,51.05
2023-04-02T03:43:41.006Z,53.20
2023-04-02T03:44:40.989Z,53.97
2023-04-02T03:45:41.027Z,52.68
2023-04-02T03:46:41.025Z,52.91
2023-04-02T03:47:40.997Z,50.64
2023-04-02T03:48:40.978Z,53.38
2023-04-02T03:49:40.950Z,52.16
2023-04-02T03:50:40.938Z,51.33
2023-04-02T03:51:40.939Z,51.70
2023-04-02T03:52:40.925Z,54.67
2023-04-02T03:53:40.895Z,49.05
2023-04-02T03:54:40.921Z,46.14
2023-04-02T03:55:41.914Z,49.82
2023-04-02T03:56:40.882Z,54.28
2023-04-02T03:57:40.886Z,49.82
2023-04-02T03:58:40.870Z,51.06
2023-04-02T03:59:40.854Z,50.63
2023-04-02T04:00:40.820Z,58.79
2023-04-02T04:01:40.849Z,51.52
2023-04-02T04:02:40.856Z,53.74
2023-04-02T04:03:40.856Z,51.14
2023-04-02T04:04:40.792Z,56.92
2023-04-02T04:05:40.774Z,55.77
2023-04-02T04:06:40.775Z,53.71
2023-04-02T04:07:40.775Z,49.84
2023-04-02T04:08:40.730Z,51.33
2023-04-02T04:09:40.758Z,56.25
2023-04-02T04:10:40.725Z,52.42
2023-04-02T04:11:40.718Z,56.91
2023-04-02T04:12:40.712Z,54.90
2023-04-02T04:13:40.689Z,51.29
2023-04-02T04:14:41.360Z,50.89
2023-04-02T04:15:40.668Z,49.88
2023-04-02T04:16:40.735Z,54.29
2023-04-02T04:17:40.699Z,52.76
2023-04-02T04:18:40.666Z,51.29
2023-04-02T04:19:40.637Z,55.50
2023-04-02T04:20:40.602Z,55.23
2023-04-02T04:21:40.605Z,50.77
2023-04-02T04:22:40.620Z,51.19
2023-04-02T04:23:40.604Z,54.17
2023-04-02T04:24:40.557Z,50.86
2023-04-02T04:25:40.602Z,54.93
2023-04-02T04:26:40.550Z,54.93
2023-04-02T04:27:40.543Z,52.91
2023-04-02T04:28:40.571Z,53.41
2023-04-02T04:29:40.526Z,53.90
2023-04-02T04:30:40.499Z,54.80
2023-04-02T04:31:40.536Z,52.69
2023-04-02T04:32:40.568Z,50.49
2023-04-02T04:33:40.496Z,53.47
2023-04-02T04:34:40.464Z,55.38
2023-04-02T04:35:40.629Z,54.17
2023-04-02T04:36:40.482Z,52.44
2023-04-02T04:37:42.682Z,53.41
2023-04-02T04:38:40.416Z,53.67
2023-04-02T04:39:40.419Z,55.36
2023-04-02T04:40:40.455Z,54.00
2023-04-02T04:41:40.377Z,52.52
2023-04-02T04:42:40.408Z,57.69
2023-04-02T04:43:40.379Z,54.20
2023-04-02T04:44:40.363Z,56.57
2023-04-02T04:45:40.417Z,55.46
2023-04-02T04:46:40.373Z,56.68
2023-04-02T04:47:40.388Z,48.40
2023-04-02T04:48:40.306Z,52.57
2023-04-02T04:49:40.334Z,54.15
2023-04-02T04:50:40.317Z,52.19
2023-04-02T04:51:40.300Z,51.14
2023-04-02T04:52:40.318Z,47.37
2023-04-02T04:53:40.273Z,54.97
2023-04-02T04:54:40.247Z,51.37
2023-04-02T04:55:40.293Z,54.10
2023-04-02T04:56:40.287Z,50.98
2023-04-02T04:57:40.210Z,49.95
2023-04-02T04:58:40.255Z,50.40
2023-04-02T04:59:40.221Z,50.46
2023-04-02T05:00:41.195Z,50.54
2023-04-02T05:01:40.199Z,52.10
2023-04-02T05:02:40.214Z,53.12
2023-04-02T05:03:40.184Z,57.35
2023-04-02T05:04:40.197Z,53.19
2023-04-02T05:05:40.142Z,55.01
2023-04-02T05:06:40.148Z,50.36
2023-04-02T05:07:40.132Z,47.92
2023-04-02T05:08:40.127Z,55.67
2023-04-02T05:09:40.107Z,54.55
2023-04-02T05:10:40.110Z,59.50
2023-04-02T05:11:40.086Z,54.36
2023-04-02T05:12:40.056Z,52.93
2023-04-02T05:13:40.081Z,53.33
2023-04-02T05:14:40.066Z,52.05
2023-04-02T05:15:40.123Z,50.04
2023-04-02T05:16:40.074Z,50.37
2023-04-02T05:17:40.077Z,52.92
2023-04-02T05:18:40.009Z,54.67
2023-04-02T05:19:40.000Z,54.08
2023-04-02T05:20:40.002Z,52.13
2023-04-02T05:21:39.973Z,51.21
2023-04-02T05:22:41.388Z,51.63
2023-04-02T05:23:39.965Z,54.84
2023-04-02T05:24:39.925Z,54.81
2023-04-02T05:25:39.941Z,53.57
2023-04-02T05:26:39.951Z,54.97
2023-04-02T05:27:39.922Z,52.61
2023-04-02T05:28:39.880Z,50.86
2023-04-02T05:29:39.900Z,52.74
2023-04-02T05:30:39.864Z,56.31
2023-04-02T05:31:39.955Z,54.21
2023-04-02T05:32:39.937Z,56.63
2023-04-02T05:33:39.856Z,53.14
2023-04-02T05:34:39.839Z,51.96
2023-04-02T05:35:39.880Z,52.28
2023-04-02T05:36:39.825Z,55.18
2023-04-02T05:37:39.842Z,50.24
2023-04-02T05:38:39.789Z,50.85
2023-04-02T05:39:39.786Z,57.22
2023-04-02T05:40:39.783Z,58.32
2023-04-02T05:41:39.760Z,52.71
2023-04-02T05:42:39.743Z,56.76
2023-04-02T05:43:39.769Z,54.99
2023-04-02T05:44:39.765Z,56.06
2023-04-02T05:45:39.698Z,52.89
2023-04-02T05:46:39.760Z,54.45
2023-04-02T05:47:39.750Z,55.04
2023-04-02T05:48:39.696Z,57.28
2023-04-02T05:49:39.677Z,54.03
2023-04-02T05:50:39.698Z,58.17
2023-04-02T05:51:39.664Z,56.50
2023-04-02T05:52:39.631Z,52.10
2023-04-02T05:53:40.657Z,53.39
2023-04-02T05:54:39.615Z,56.53
2023-04-02T05:55:39.634Z,57.43
2023-04-02T05:56:39.622Z,56.62
2023-04-02T05:57:46.754Z,56.45
2023-04-02T05:59:39.583Z,55.36
2023-04-02T06:00:39.593Z,56.71
2023-04-02T06:01:39.586Z,56.11
2023-04-02T06:02:39.646Z,57.44
2023-04-02T06:03:39.605Z,56.17
2023-04-02T06:04:39.522Z,58.47
2023-04-02T06:05:39.522Z,60.00
2023-04-02T06:06:39.535Z,56.23
2023-04-02T06:07:39.504Z,60.28
2023-04-02T06:08:39.518Z,61.10
2023-04-02T06:09:39.491Z,59.80
2023-04-02T06:10:39.438Z,58.74
2023-04-02T06:11:39.447Z,60.05
2023-04-02T06:12:39.449Z,58.45
2023-04-02T06:13:39.425Z,56.75
2023-04-02T06:14:39.405Z,57.90
2023-04-02T06:15:39.407Z,57.74
2023-04-02T06:16:39.479Z,58.54
2023-04-02T06:17:39.400Z,55.61
2023-04-02T06:18:39.387Z,56.22
2023-04-02T06:19:39.363Z,56.47
2023-04-02T06:20:39.341Z,62.82
2023-04-02T06:21:39.335Z,57.47
2023-04-02T06:22:39.358Z,60.74
2023-04-02T06:23:39.311Z,57.04
2023-04-02T06:24:39.297Z,58.92
2023-04-02T06:25:39.304Z,62.17
2023-04-02T06:26:39.282Z,56.70
2023-04-02T06:27:39.266Z,58.04
2023-04-02T06:28:39.274Z,57.66
2023-04-02T06:29:39.251Z,53.37
2023-04-02T06:30:39.312Z,60.01
2023-04-02T06:31:39.251Z,61.11
2023-04-02T06:32:39.287Z,58.31
2023-04-02T06:33:39.198Z,56.54
2023-04-02T06:34:39.216Z,58.56
2023-04-02T06:35:39.288Z,61.62
2023-04-02T06:36:39.176Z,55.36
2023-04-02T06:37:39.189Z,60.14
2023-04-02T06:38:39.171Z,61.28
2023-04-02T06:39:39.146Z,59.88
2023-04-02T06:40:39.131Z,57.69
2023-04-02T06:41:39.130Z,59.91
2023-04-02T06:42:39.150Z,59.16
2023-04-02T06:43:39.111Z,60.81
2023-04-02T06:44:39.099Z,58.52
2023-04-02T06:45:39.090Z,55.73
2023-04-02T06:46:39.091Z,56.57
2023-04-02T06:47:39.161Z,60.20
2023-04-02T06:48:39.044Z,59.99
2023-04-02T06:49:39.080Z,55.40
2023-04-02T06:50:39.019Z,57.64
2023-04-02T06:51:39.037Z,58.03
2023-04-02T06:52:39.030Z,52.94
2023-04-02T06:53:39.029Z,58.28
2023-04-02T06:54:39.115Z,56.65
2023-04-02T06:55:39.243Z,61.03
2023-04-02T06:56:38.998Z,58.64
2023-04-02T06:57:39.302Z,53.94
2023-04-02T06:58:38.974Z,58.88
2023-04-02T06:59:38.943Z,57.12
2023-04-02T07:00:38.942Z,59.86
2023-04-02T07:01:38.949Z,56.07
2023-04-02T07:02:38.957Z,58.37
2023-04-02T07:03:38.903Z,56.66
2023-04-02T07:04:38.900Z,58.35
2023-04-02T07:05:41.002Z,59.22
2023-04-02T07:06:38.864Z,55.84
2023-04-02T07:07:38.876Z,60.53
2023-04-02T07:08:38.863Z,58.97
2023-04-02T07:09:38.842Z,59.70
2023-04-02T07:10:38.829Z,56.04
2023-04-02T07:11:38.823Z,55.37
2023-04-02T07:12:38.845Z,56.95
2023-04-02T07:13:38.807Z,58.45
2023-04-02T07:14:38.758Z,56.23
2023-04-02T07:15:38.798Z,57.69
2023-04-02T07:16:38.788Z,59.92
2023-04-02T07:17:38.785Z,56.14
2023-04-02T07:18:38.725Z,57.97
2023-04-02T07:19:38.736Z,57.92
2023-04-02T07:20:38.734Z,59.97
2023-04-02T07:21:38.694Z,56.57
2023-04-02T07:22:38.719Z,59.03
2023-04-02T07:23:38.695Z,57.85
2023-04-02T07:24:38.684Z,55.70
2023-04-02T07:25:38.664Z,56.96
2023-04-02T07:26:38.698Z,57.34
2023-04-02T07:27:38.651Z,55.28
2023-04-02T07:28:38.614Z,57.95
2023-04-02T07:29:39.668Z,59.50
2023-04-02T07:30:38.601Z,59.39
2023-04-02T07:31:38.629Z,59.64
2023-04-02T07:32:38.677Z,61.49
2023-04-02T07:33:40.100Z,57.81
2023-04-02T07:34:38.565Z,57.38
2023-04-02T07:35:38.709Z,55.93
2023-04-02T07:36:38.562Z,56.32
2023-04-02T07:37:38.544Z,58.35
2023-04-02T07:38:38.542Z,59.31
2023-04-02T07:39:40.238Z,58.95
2023-04-02T07:40:38.506Z,59.97
2023-04-02T07:41:38.489Z,59.41
2023-04-02T07:42:38.498Z,60.16
2023-04-02T07:43:38.488Z,57.51
2023-04-02T07:44:38.457Z,58.56
2023-04-02T07:45:38.725Z,58.01
2023-04-02T07:46:38.484Z,58.08
2023-04-02T07:47:38.469Z,60.95
2023-04-02T07:48:38.414Z,60.86
2023-04-02T07:49:38.425Z,58.90
2023-04-02T07:50:38.413Z,60.07
2023-04-02T07:51:38.396Z,60.76
2023-04-02T07:52:40.347Z,56.84
2023-04-02T07:53:39.386Z,57.11
2023-04-02T07:54:38.395Z,59.05
2023-04-02T07:55:38.368Z,59.29
2023-04-02T07:56:38.365Z,58.86
2023-04-02T07:57:38.321Z,61.67
2023-04-02T07:58:39.318Z,60.28
2023-04-02T07:59:38.333Z,57.18
2023-04-02T08:00:38.302Z,59.72
2023-04-02T08:01:38.297Z,60.46
2023-04-02T08:02:38.320Z,56.46
2023-04-02T08:03:38.357Z,60.08
2023-04-02T08:04:38.520Z,60.19
2023-04-02T08:05:38.299Z,55.39
2023-04-02T08:06:38.243Z,59.36
2023-04-02T08:07:38.240Z,58.23
2023-04-02T08:08:38.209Z,64.39
2023-04-02T08:09:38.214Z,58.85
2023-04-02T08:10:38.181Z,59.22
2023-04-02T08:11:38.168Z,58.48
2023-04-02T08:12:38.186Z,59.98
2023-04-02T08:13:38.179Z,58.57
2023-04-02T08:14:38.162Z,59.15
2023-04-02T08:15:38.265Z,62.73
2023-04-02T08:16:38.219Z,59.00
2023-04-02T08:17:38.163Z,59.08
2023-04-02T08:18:38.125Z,58.47
2023-04-02T08:19:48.024Z,59.86
2023-04-02T08:20:40.090Z,60.24
2023-04-02T08:21:38.087Z,60.69
2023-04-02T08:22:38.095Z,59.51
2023-04-02T08:23:38.073Z,58.89
2023-04-02T08:24:39.016Z,60.00
2023-04-02T08:25:38.041Z,59.33
2023-04-02T08:26:38.002Z,60.02
2023-04-02T08:27:38.022Z,58.71
2023-04-02T08:28:38.038Z,59.52
2023-04-02T08:29:38.003Z,58.29
2023-04-02T08:30:37.977Z,58.07
2023-04-02T08:31:37.967Z,60.63
2023-04-02T08:32:38.122Z,57.49
2023-04-02T08:33:37.930Z,57.80
2023-04-02T08:34:37.969Z,59.56
2023-04-02T08:35:38.131Z,58.06
2023-04-02T08:36:37.926Z,58.49
2023-04-02T08:37:37.914Z,60.14
2023-04-02T08:38:37.912Z,60.06
2023-04-02T08:39:37.893Z,60.80
2023-04-02T08:40:37.862Z,59.02
2023-04-02T08:41:37.885Z,59.04
2023-04-02T08:42:37.846Z,58.32
2023-04-02T08:43:37.864Z,59.66
2023-04-02T08:44:37.870Z,58.39
2023-04-02T08:45:37.824Z,59.31
2023-04-02T08:46:37.863Z,58.52
2023-04-02T08:47:37.810Z,59.43
2023-04-02T08:48:37.809Z,55.20
2023-04-02T08:49:37.817Z,60.70
2023-04-02T08:50:37.798Z,58.89
2023-04-02T08:51:37.777Z,58.74
2023-04-02T08:52:37.783Z,55.35
2023-04-02T08:53:37.742Z,56.36
2023-04-02T08:54:37.726Z,58.31
2023-04-02T08:55:37.874Z,58.75
2023-04-02T08:56:37.716Z,59.79
2023-04-02T08:57:37.673Z,59.55
2023-04-02T08:58:37.701Z,55.50
2023-04-02T08:59:37.688Z,57.01
2023-04-02T09:00:38.023Z,55.95
2023-04-02T09:01:38.705Z,58.56
2023-04-02T09:02:37.697Z,57.57
2023-04-02T09:03:37.636Z,58.91
2023-04-02T09:04:37.639Z,61.11
2023-04-02T09:05:38.054Z,59.22
2023-04-02T09:06:37.611Z,58.49
2023-04-02T09:07:37.597Z,56.39
2023-04-02T09:08:37.619Z,56.22
2023-04-02T09:09:37.562Z,56.27
2023-04-02T09:10:37.554Z,58.24
2023-04-02T09:11:37.556Z,56.61
2023-04-02T09:12:37.553Z,57.69
2023-04-02T09:13:37.546Z,60.10
2023-04-02T09:14:37.530Z,60.06
2023-04-02T09:15:37.810Z,61.24
2023-04-02T09:16:37.479Z,59.30
2023-04-02T09:17:50.524Z,58.05
2023-04-02T09:18:39.575Z,57.69
2023-04-02T09:19:37.482Z,59.20
2023-04-02T09:20:37.443Z,58.13
2023-04-02T09:21:37.458Z,59.93
2023-04-02T09:22:37.445Z,57.48
2023-04-02T09:23:37.431Z,61.00
2023-04-02T09:24:37.392Z,60.07
2023-04-02T09:25:37.523Z,59.32
2023-04-02T09:26:37.398Z,58.73
2023-04-02T09:27:37.383Z,58.88
2023-04-02T09:28:37.353Z,57.40
2023-04-02T09:29:37.381Z,58.38
2023-04-02T09:30:37.333Z,57.72
2023-04-02T09:32:09.269Z,57.98
2023-04-02T09:32:37.397Z,58.80
2023-04-02T09:33:37.305Z,59.48
2023-04-02T09:34:37.312Z,58.57
2023-04-02T09:35:37.450Z,57.95
2023-04-02T09:36:37.307Z,59.26
2023-04-02T09:37:37.278Z,58.12
2023-04-02T09:38:37.257Z,60.13
2023-04-02T09:39:37.249Z,58.03
2023-04-02T09:40:37.251Z,58.28
2023-04-02T09:41:37.362Z,60.28
2023-04-02T09:42:37.213Z,59.13
2023-04-02T09:43:37.198Z,60.79
2023-04-02T09:44:37.233Z,57.31
2023-04-02T09:45:37.288Z,56.95
2023-04-02T09:46:37.241Z,58.80
2023-04-02T09:47:37.307Z,59.25
2023-04-02T09:48:38.201Z,58.03
2023-04-02T09:49:37.156Z,57.61
2023-04-02T09:50:37.139Z,58.62
2023-04-02T09:51:37.130Z,56.49
2023-04-02T09:52:37.103Z,53.12
2023-04-02T09:53:37.119Z,56.50
2023-04-02T09:54:37.090Z,58.03
2023-04-02T09:55:37.296Z,59.36
2023-04-02T09:56:37.085Z,58.18
2023-04-02T09:57:37.045Z,59.28
2023-04-02T09:58:38.059Z,58.54
2023-04-02T09:59:37.056Z,58.36
2023-04-02T10:00:37.020Z,58.49
2023-04-02T10:01:37.164Z,58.15
2023-04-02T10:02:37.089Z,59.79
2023-04-02T10:03:36.998Z,58.59
2023-04-02T10:04:37.022Z,59.88
2023-04-02T10:05:40.948Z,58.26
2023-04-02T10:06:38.043Z,60.67
2023-04-02T10:07:36.955Z,60.38
2023-04-02T10:08:36.954Z,58.78
2023-04-02T10:09:36.970Z,61.05
2023-04-02T10:10:37.057Z,59.13
2023-04-02T10:12:37.906Z,59.22
2023-04-02T10:13:36.891Z,61.26
2023-04-02T10:14:36.884Z,58.87
2023-04-02T10:15:37.085Z,58.16
2023-04-02T10:16:36.903Z,59.72
2023-04-02T10:17:36.880Z,59.76
2023-04-02T10:18:36.845Z,59.83
2023-04-02T10:19:36.833Z,58.87
2023-04-02T10:20:48.684Z,60.02
2023-04-02T10:21:37.810Z,59.22
2023-04-02T10:22:36.805Z,60.60
2023-04-02T10:23:36.771Z,58.47
2023-04-02T10:24:36.795Z,58.85
2023-04-02T10:25:36.980Z,58.44
2023-04-02T10:26:36.769Z,59.75
2023-04-02T10:27:36.740Z,59.75
2023-04-02T10:28:36.734Z,58.77
2023-04-02T10:29:36.725Z,58.79
2023-04-02T10:30:36.732Z,60.36
2023-04-02T10:31:36.708Z,59.80
2023-04-02T10:32:36.738Z,60.67
2023-04-02T10:33:36.673Z,57.20
2023-04-02T10:34:36.684Z,57.11
2023-04-02T10:35:36.808Z,61.10
2023-04-02T10:36:36.656Z,59.58
2023-04-02T10:37:36.661Z,58.75
2023-04-02T10:38:36.651Z,61.35
2023-04-02T10:39:36.618Z,58.49
2023-04-02T10:40:36.616Z,58.93
2023-04-02T10:41:36.609Z,57.97
2023-04-02T10:42:36.590Z,60.45
2023-04-02T10:43:36.587Z,59.05
2023-04-02T10:44:36.572Z,59.19
2023-04-02T10:45:36.882Z,58.83
2023-04-02T10:46:36.643Z,60.66
2023-04-02T10:47:36.579Z,59.41
2023-04-02T10:48:36.562Z,59.80
2023-04-02T10:49:36.609Z,58.59
2023-04-02T10:50:36.541Z,58.95
2023-04-02T10:51:36.517Z,56.88
2023-04-02T10:52:36.517Z,57.70
2023-04-02T10:53:36.532Z,58.49
2023-04-02T10:54:36.491Z,56.97
2023-04-02T10:55:36.694Z,58.44
2023-04-02T10:56:47.990Z,57.74
2023-04-02T10:57:38.506Z,58.98
2023-04-02T10:58:36.452Z,60.91
2023-04-02T10:59:36.432Z,59.82
2023-04-02T11:00:36.411Z,57.08
2023-04-02T11:01:36.411Z,60.88
2023-04-02T11:02:37.556Z,61.59
2023-04-02T11:03:36.454Z,57.24
2023-04-02T11:04:36.383Z,60.14
2023-04-02T11:05:36.568Z,59.37
2023-04-02T11:06:36.353Z,56.41
2023-04-02T11:07:36.364Z,58.49
2023-04-02T11:08:36.368Z,59.91
2023-04-02T11:09:36.320Z,60.67
2023-04-02T11:10:36.322Z,60.80
2023-04-02T11:11:36.311Z,59.10
2023-04-02T11:12:41.410Z,60.36
2023-04-02T11:13:37.318Z,60.08
2023-04-02T11:14:36.270Z,58.33
2023-04-02T11:15:36.652Z,58.46
2023-04-02T11:16:40.681Z,55.69
2023-04-02T11:17:38.302Z,58.39
2023-04-02T11:18:36.220Z,57.55
2023-04-02T11:19:36.203Z,58.20
2023-04-02T11:20:36.223Z,58.76
2023-04-02T11:21:42.229Z,57.97
2023-04-02T11:22:38.198Z,57.36
2023-04-02T11:23:36.193Z,58.83
2023-04-02T11:24:36.161Z,58.34
2023-04-02T11:25:36.468Z,58.53
2023-04-02T11:26:36.205Z,58.49
2023-04-02T11:27:36.126Z,59.38
2023-04-02T11:28:36.106Z,57.16
2023-04-02T11:29:36.175Z,59.82
2023-04-02T11:30:36.098Z,58.70
2023-04-02T11:31:36.128Z,56.48
2023-04-02T11:32:36.084Z,60.77
2023-04-02T11:33:38.333Z,60.13
2023-04-02T11:34:37.056Z,56.77
2023-04-02T11:35:36.336Z,58.73
2023-04-02T11:36:36.064Z,58.73
2023-04-02T11:37:36.048Z,58.12
2023-04-02T11:38:36.053Z,59.72
2023-04-02T11:39:36.011Z,57.44
2023-04-02T11:40:36.008Z,57.01
2023-04-02T11:41:35.988Z,58.30
2023-04-02T11:42:36.012Z,59.19
2023-04-02T11:43:36.096Z,59.34
2023-04-02T11:44:35.955Z,61.01
2023-04-02T11:45:46.428Z,60.90
2023-04-02T11:46:37.969Z,57.64
2023-04-02T11:47:35.950Z,58.43
2023-04-02T11:48:35.934Z,59.22
2023-04-02T11:49:35.899Z,60.95
2023-04-02T11:50:35.907Z,60.77
2023-04-02T11:51:35.906Z,56.95
2023-04-02T11:52:35.877Z,58.40
2023-04-02T11:53:35.871Z,59.62
2023-04-02T11:54:35.866Z,58.25
2023-04-02T11:55:36.078Z,59.61
2023-04-02T11:56:35.841Z,59.37
2023-04-02T11:57:35.983Z,59.89
2023-04-02T11:58:35.818Z,60.10
2023-04-02T11:59:35.798Z,61.04
2023-04-02T12:00:35.966Z,57.48
2023-04-02T12:01:35.787Z,55.25
2023-04-02T12:02:35.874Z,61.31
2023-04-02T12:03:35.745Z,57.89
2023-04-02T12:04:35.758Z,57.64
2023-04-02T12:05:35.893Z,57.19
2023-04-02T12:06:35.725Z,58.60
2023-04-02T12:07:35.724Z,57.56
2023-04-02T12:08:44.289Z,57.23
2023-04-02T12:09:36.689Z,58.05
2023-04-02T12:10:35.692Z,60.33
2023-04-02T12:11:35.676Z,59.10
2023-04-02T12:12:35.655Z,59.00
2023-04-02T12:13:35.670Z,59.46
2023-04-02T12:14:35.680Z,57.95
2023-04-02T12:15:35.774Z,61.96
2023-04-02T12:16:35.665Z,60.08
2023-04-02T12:17:35.623Z,58.31
2023-04-02T12:18:35.600Z,60.17
2023-04-02T12:19:35.604Z,59.90
2023-04-02T12:20:35.785Z,59.84
2023-04-02T12:21:35.584Z,60.39
2023-04-02T12:22:35.573Z,59.09
2023-04-02T12:23:35.562Z,60.85
2023-04-02T12:24:35.572Z,59.34
2023-04-02T12:25:35.536Z,57.77
2023-04-02T12:26:35.539Z,56.54
2023-04-02T12:27:35.533Z,59.34
2023-04-02T12:28:35.516Z,60.33
2023-04-02T12:29:35.480Z,57.09
2023-04-02T12:30:35.648Z,58.08
2023-04-02T12:31:35.485Z,58.76
2023-04-02T12:32:35.476Z,57.84
2023-04-02T12:33:35.441Z,58.68
2023-04-02T12:34:35.434Z,58.94
2023-04-02T12:35:35.504Z,59.32
2023-04-02T12:36:35.460Z,57.07
2023-04-02T12:37:35.403Z,59.04
2023-04-02T12:38:35.428Z,59.60
2023-04-02T12:39:35.385Z,56.81
2023-04-02T12:40:35.662Z,57.65
2023-04-02T12:41:35.376Z,59.84
2023-04-02T12:42:35.349Z,58.92
2023-04-02T12:43:35.358Z,59.04
2023-04-02T12:44:35.367Z,59.78
2023-04-02T12:45:35.338Z,58.97
2023-04-02T12:46:35.418Z,58.97
2023-04-02T12:47:35.359Z,58.62
2023-04-02T12:48:35.300Z,60.10
2023-04-02T12:49:35.269Z,58.83
2023-04-02T12:50:35.513Z,57.62
2023-04-02T12:51:35.264Z,59.89
2023-04-02T12:52:35.245Z,58.23
2023-04-02T12:53:35.227Z,59.15
2023-04-02T12:54:35.217Z,58.60